Terminal Aerodrome Forecast
Issued by NWS Cleveland, OH

Home | Current Version | Previous Version | Text Only | Print | Product List | Glossary Off
Versions: 1 2 3 4 5 6 7 8 9 10 11 12 13

547
FTUS41 KCLE 210109 AAA
TAFYNG
TAF AMD
KYNG 210109Z 2101/2124 33008KT P6SM VCTS SCT050CB OVC100
      TEMPO 2103/2104 VRB15G30KT 2SM TSRA SCT025CB OVC050
     FM210530 27012KT P6SM BKN015 OVC035
     FM212200 30012KT P6SM BKN025=

USA.gov is the U.S. government's official web portal to all federal, state and local government web resources and services.